Time;durP1;ratioP1;P1;durP2;ratioP2;P2;SDS_P1;SDS_P2;PMS_P1;PMS_P2;Temp;Humidity;BMP_temperature;BMP_pressure;BME280_temperature;BME280_humidity;BME280_pressure;Samples;Min_cycle;Max_cycle;Signal;HPM_P1;HPM_P2
2023/09/12 00:00:09;;;;;;;0.50;0.30;;;20.10;99.90;;;;;;5075861;28;20467;-82
2023/09/12 00:02:36;;;;;;;0.50;0.30;;;20.10;99.90;;;;;;5076393;28;20437;-83
2023/09/12 00:05:04;;;;;;;0.50;0.40;;;20.10;99.90;;;;;;5058341;28;20504;-81
2023/09/12 00:07:30;;;;;;;0.50;0.30;;;20.10;99.90;;;;;;5059499;28;20441;-82
2023/09/12 00:09:57;;;;;;;0.50;0.30;;;20.10;99.90;;;;;;5059487;28;20541;-82
2023/09/12 00:12:25;;;;;;;0.50;0.30;;;20.10;99.90;;;;;;5055894;28;20927;-83
2023/09/12 00:14:52;;;;;;;0.50;0.30;;;20.10;99.90;;;;;;5071641;28;20483;-82
2023/09/12 00:17:20;;;;;;;0.50;0.30;;;20.00;99.90;;;;;;5075434;28;20531;-82
2023/09/12 00:19:47;;;;;;;0.50;0.30;;;20.00;99.90;;;;;;5075505;28;20438;-82
2023/09/12 00:22:14;;;;;;;0.50;0.30;;;20.00;99.90;;;;;;5064919;28;20450;-82
2023/09/12 00:24:41;;;;;;;0.50;0.30;;;20.00;99.90;;;;;;5063279;28;20436;-82
2023/09/12 00:27:07;;;;;;;0.50;0.30;;;20.00;99.90;;;;;;5065669;28;20468;-82
2023/09/12 00:29:34;;;;;;;0.50;0.30;;;20.00;99.90;;;;;;5062675;28;20528;-80
2023/09/12 00:32:01;;;;;;;0.50;0.30;;;20.00;99.90;;;;;;5055769;28;20545;-81
2023/09/12 00:34:29;;;;;;;0.50;0.30;;;20.10;99.90;;;;;;5066247;28;20475;-82
2023/09/12 00:36:56;;;;;;;0.50;0.30;;;20.20;99.90;;;;;;5059804;28;20434;-83
2023/09/12 00:39:23;;;;;;;0.50;0.40;;;20.20;99.90;;;;;;5055217;28;20434;-82
2023/09/12 00:41:50;;;;;;;0.50;0.50;;;20.30;99.90;;;;;;5055597;28;20468;-82
2023/09/12 00:44:16;;;;;;;2.17;1.33;;;20.40;99.90;;;;;;5071894;28;20437;-82
2023/09/12 00:46:45;;;;;;;0.50;0.40;;;20.40;99.90;;;;;;5062765;28;20448;-82
2023/09/12 00:49:14;;;;;;;0.50;0.33;;;20.40;99.90;;;;;;5071548;28;20451;-82
2023/09/12 00:51:43;;;;;;;0.50;0.30;;;20.30;99.90;;;;;;5068343;28;20499;-82
2023/09/12 00:54:10;;;;;;;0.50;0.33;;;20.30;99.90;;;;;;5074807;28;20566;-82
2023/09/12 00:56:37;;;;;;;0.50;0.30;;;20.40;99.90;;;;;;5069880;28;20521;-82
2023/09/12 00:59:06;;;;;;;2.67;2.20;;;20.40;99.90;;;;;;5063114;28;20920;-81
2023/09/12 01:01:33;;;;;;;0.63;0.57;;;20.40;99.90;;;;;;5058795;28;20522;-82
2023/09/12 01:04:01;;;;;;;0.50;0.30;;;20.40;99.90;;;;;;5074543;28;20440;-82
2023/09/12 01:06:30;;;;;;;0.50;0.30;;;20.30;99.90;;;;;;5054696;28;20465;-83
2023/09/12 01:08:58;;;;;;;0.50;0.40;;;20.40;99.90;;;;;;5063412;28;20523;-82
2023/09/12 01:11:25;;;;;;;0.50;0.30;;;20.50;99.90;;;;;;5065849;28;20816;-81
2023/09/12 01:13:52;;;;;;;0.50;0.40;;;20.60;99.90;;;;;;5059625;28;20480;-82
2023/09/12 01:16:19;;;;;;;0.50;0.30;;;20.60;99.90;;;;;;5054713;28;20444;-82
2023/09/12 01:18:46;;;;;;;0.50;0.30;;;20.60;99.90;;;;;;5060041;28;20447;-82
2023/09/12 01:22:01;;;;;;;0.50;0.30;;;20.60;99.90;;;;;;5074421;28;20940;-82
2023/09/12 01:25:03;;;;;;;0.50;0.30;;;20.60;99.90;;;;;;5057782;28;20459;-82
2023/09/12 01:27:35;;;;;;;0.50;0.30;;;20.50;99.90;;;;;;5047085;28;20431;-82
2023/09/12 01:30:05;;;;;;;0.50;0.30;;;20.50;99.90;;;;;;5054485;28;20500;-81
2023/09/12 01:32:33;;;;;;;0.50;0.30;;;20.40;99.90;;;;;;5054883;28;20520;-83
2023/09/12 01:35:00;;;;;;;0.50;0.40;;;20.40;99.90;;;;;;5054482;28;20477;-82
2023/09/12 01:37:27;;;;;;;0.50;0.30;;;20.40;99.90;;;;;;5071505;28;20443;-82
2023/09/12 01:39:54;;;;;;;0.50;0.30;;;20.40;99.90;;;;;;5063124;28;20440;-83
2023/09/12 01:42:22;;;;;;;0.50;0.30;;;20.40;99.90;;;;;;5056026;28;20525;-82
2023/09/12 01:44:55;;;;;;;0.50;0.30;;;20.40;99.90;;;;;;5068459;28;20440;-82
2023/09/12 01:47:22;;;;;;;0.50;0.30;;;20.40;99.90;;;;;;5062557;28;20467;-82
2023/09/12 01:49:53;;;;;;;0.50;0.30;;;20.40;99.90;;;;;;5068709;28;20466;-81
2023/09/12 01:52:21;;;;;;;0.50;0.30;;;20.30;99.90;;;;;;5072811;28;20528;-81
2023/09/12 01:54:50;;;;;;;0.50;0.30;;;20.30;99.90;;;;;;5068267;28;20914;-82
2023/09/12 01:57:20;;;;;;;0.50;0.30;;;20.30;99.90;;;;;;5072505;28;20479;-81
2023/09/12 01:59:47;;;;;;;0.50;0.30;;;20.30;99.90;;;;;;5067942;28;20440;-82
2023/09/12 02:02:15;;;;;;;0.70;0.70;;;20.20;99.90;;;;;;5066306;28;20438;-81
2023/09/12 02:04:42;;;;;;;0.50;0.30;;;20.20;99.90;;;;;;5070097;28;20430;-80
2023/09/12 02:07:09;;;;;;;0.50;0.30;;;20.10;99.90;;;;;;5064780;28;20500;-81
2023/09/12 02:09:36;;;;;;;0.50;0.30;;;20.10;99.90;;;;;;5065274;28;20523;-80
2023/09/12 02:12:03;;;;;;;0.50;0.30;;;20.10;99.90;;;;;;5066130;28;20501;-81
2023/09/12 02:14:29;;;;;;;0.50;0.30;;;20.10;99.90;;;;;;5057324;28;20577;-82
2023/09/12 02:16:56;;;;;;;0.50;0.30;;;20.00;99.90;;;;;;5063709;28;20524;-82
2023/09/12 02:19:24;;;;;;;0.50;0.30;;;20.00;99.90;;;;;;5062616;28;20436;-82
2023/09/12 02:21:51;;;;;;;0.50;0.30;;;20.00;99.90;;;;;;5054249;28;20882;-81
2023/09/12 02:24:21;;;;;;;0.50;0.40;;;20.00;99.90;;;;;;5063538;28;20523;-81
2023/09/12 02:26:48;;;;;;;0.50;0.30;;;20.00;99.90;;;;;;5074117;28;20441;-80
2023/09/12 02:29:14;;;;;;;0.50;0.30;;;20.00;99.90;;;;;;5065181;28;20448;-81
2023/09/12 02:31:41;;;;;;;1.37;0.70;;;20.10;99.90;;;;;;5070360;28;20456;-81
2023/09/12 02:34:08;;;;;;;0.50;0.30;;;20.10;99.90;;;;;;5069777;28;20556;-80
2023/09/12 02:36:39;;;;;;;0.50;0.30;;;20.20;99.90;;;;;;5069839;28;20558;-82
2023/09/12 02:39:06;;;;;;;0.50;0.30;;;20.20;99.90;;;;;;5070419;28;20440;-81
2023/09/12 02:41:33;;;;;;;0.50;0.30;;;20.30;99.90;;;;;;5066666;28;20454;-81
2023/09/12 02:43:59;;;;;;;0.50;0.30;;;20.30;99.90;;;;;;5072851;28;20523;-82
2023/09/12 02:46:26;;;;;;;1.87;1.70;;;20.30;99.90;;;;;;5077367;28;20869;-82
2023/09/12 02:48:53;;;;;;;0.50;0.30;;;20.30;99.90;;;;;;5071903;28;20518;-81
2023/09/12 02:51:20;;;;;;;0.50;0.30;;;20.30;99.90;;;;;;5074932;28;20453;-83
2023/09/12 02:53:48;;;;;;;0.50;0.30;;;20.30;99.90;;;;;;5076799;28;20474;-80
2023/09/12 02:56:15;;;;;;;0.50;0.30;;;20.30;99.90;;;;;;5068895;28;20520;-82
2023/09/12 02:58:42;;;;;;;0.50;0.30;;;20.30;99.90;;;;;;5070283;28;20521;-82
2023/09/12 03:01:08;;;;;;;0.50;0.40;;;20.40;99.90;;;;;;5061407;28;21025;-82
2023/09/12 03:03:35;;;;;;;0.50;0.30;;;20.40;99.90;;;;;;5056791;28;20444;-81
2023/09/12 03:06:03;;;;;;;0.50;0.40;;;20.30;99.90;;;;;;5072360;28;20432;-82
2023/09/12 03:08:30;;;;;;;0.50;0.40;;;20.30;99.90;;;;;;5066744;28;20873;-81
2023/09/12 03:11:00;;;;;;;0.50;0.30;;;20.20;99.90;;;;;;5062942;28;20487;-82
2023/09/12 03:13:27;;;;;;;0.53;0.47;;;20.10;99.90;;;;;;5069034;28;20445;-81
2023/09/12 03:15:54;;;;;;;2.00;1.43;;;20.00;99.90;;;;;;5068987;28;20877;-82
2023/09/12 03:18:34;;;;;;;0.50;0.30;;;20.00;99.90;;;;;;5076781;28;20531;-81
2023/09/12 03:21:02;;;;;;;1.10;1.10;;;20.00;99.90;;;;;;5076466;28;20464;-81
2023/09/12 03:23:29;;;;;;;0.70;0.70;;;19.90;99.90;;;;;;5076431;28;20455;-81
2023/09/12 03:25:56;;;;;;;0.87;0.87;;;19.90;99.90;;;;;;5062619;28;20469;-81
2023/09/12 03:28:24;;;;;;;0.50;0.30;;;19.90;99.90;;;;;;5074296;28;20439;-84
2023/09/12 03:30:50;;;;;;;0.50;0.30;;;19.80;99.90;;;;;;5063279;28;20834;-82
2023/09/12 03:33:17;;;;;;;0.50;0.30;;;19.70;99.90;;;;;;5056216;28;20435;-81
2023/09/12 03:35:44;;;;;;;0.50;0.30;;;19.70;99.90;;;;;;5075708;28;20471;-82
2023/09/12 03:38:11;;;;;;;0.50;0.30;;;19.60;99.90;;;;;;5076762;28;20958;-83
2023/09/12 03:40:38;;;;;;;0.50;0.30;;;19.60;99.90;;;;;;5064648;28;20453;-80
2023/09/12 03:43:05;;;;;;;0.50;0.40;;;19.60;99.90;;;;;;5071146;28;20436;-80
2023/09/12 03:45:33;;;;;;;0.50;0.30;;;19.50;99.90;;;;;;5065438;28;20524;-82
2023/09/12 03:48:00;;;;;;;0.50;0.30;;;19.50;99.90;;;;;;5062169;28;20441;-81
2023/09/12 03:50:27;;;;;;;0.70;0.70;;;19.50;99.90;;;;;;5053521;28;20464;-82
2023/09/12 03:52:53;;;;;;;0.50;0.30;;;19.40;99.90;;;;;;5055022;28;20444;-82
2023/09/12 03:55:20;;;;;;;0.50;0.30;;;19.40;99.90;;;;;;5075068;28;20558;-83
2023/09/12 03:57:47;;;;;;;0.50;0.33;;;19.40;99.90;;;;;;5040620;28;20438;-83
2023/09/12 04:00:15;;;;;;;0.50;0.40;;;19.40;99.90;;;;;;5045983;28;20540;-82
2023/09/12 04:02:43;;;;;;;0.50;0.30;;;19.40;99.90;;;;;;5045034;28;20512;-80
2023/09/12 04:05:10;;;;;;;0.50;0.40;;;19.30;99.90;;;;;;5047692;28;20435;-83
2023/09/12 04:07:37;;;;;;;0.50;0.30;;;19.30;99.90;;;;;;5055824;28;20430;-82
2023/09/12 04:10:04;;;;;;;0.50;0.30;;;19.30;99.90;;;;;;5055934;28;20544;-82
2023/09/12 04:12:31;;;;;;;0.50;0.30;;;19.30;99.90;;;;;;5066160;28;20432;-82
2023/09/12 04:14:58;;;;;;;0.60;0.60;;;19.30;99.90;;;;;;5074974;28;20487;-82
2023/09/12 04:17:25;;;;;;;0.50;0.30;;;19.30;99.90;;;;;;5058567;28;20520;-82
2023/09/12 04:19:53;;;;;;;0.50;0.30;;;19.30;99.90;;;;;;5071293;28;20441;-83
2023/09/12 04:22:20;;;;;;;0.50;0.30;;;19.20;99.90;;;;;;5073368;28;20443;-82
2023/09/12 04:24:46;;;;;;;0.50;0.40;;;19.20;99.90;;;;;;5065078;28;20520;-82
2023/09/12 04:27:13;;;;;;;0.50;0.30;;;19.20;99.90;;;;;;5072658;28;20440;-82
2023/09/12 04:29:40;;;;;;;0.50;0.30;;;19.20;99.90;;;;;;5076622;28;20970;-81
2023/09/12 04:32:07;;;;;;;0.50;0.30;;;19.10;99.90;;;;;;5067717;28;20516;-83
2023/09/12 04:34:35;;;;;;;0.80;0.80;;;19.10;99.90;;;;;;5067370;28;20472;-82
2023/09/12 04:37:05;;;;;;;0.50;0.30;;;19.10;99.90;;;;;;5069196;28;20439;-83
2023/09/12 04:39:32;;;;;;;0.50;0.30;;;19.10;99.90;;;;;;5059492;28;20480;-83
2023/09/12 04:41:59;;;;;;;0.50;0.30;;;19.10;99.90;;;;;;5071141;28;20797;-82
2023/09/12 04:44:25;;;;;;;0.50;0.30;;;19.10;99.90;;;;;;5055227;28;20434;-83
2023/09/12 04:46:52;;;;;;;0.50;0.30;;;19.10;99.90;;;;;;5068015;28;20532;-83
2023/09/12 04:49:19;;;;;;;1.07;0.87;;;19.20;99.90;;;;;;5075805;28;20450;-82
2023/09/12 04:51:46;;;;;;;1.37;1.07;;;19.20;99.90;;;;;;5064421;28;20543;-83
2023/09/12 04:54:14;;;;;;;0.50;0.30;;;19.20;99.90;;;;;;5055134;28;20527;-83
2023/09/12 04:56:41;;;;;;;0.50;0.30;;;19.20;99.90;;;;;;5057522;28;20436;-83
2023/09/12 04:59:07;;;;;;;0.50;0.30;;;19.20;99.90;;;;;;5075679;28;20439;-84
2023/09/12 05:01:34;;;;;;;0.50;0.40;;;19.30;99.90;;;;;;5056862;28;20553;-82
2023/09/12 05:04:02;;;;;;;0.50;0.30;;;19.40;99.90;;;;;;5054844;28;20525;-82
2023/09/12 05:06:29;;;;;;;0.50;0.30;;;19.50;99.90;;;;;;5054637;28;20446;-82
2023/09/12 05:08:56;;;;;;;2.63;1.40;;;19.60;99.90;;;;;;5054985;28;20996;-82
2023/09/12 05:11:25;;;;;;;0.50;0.30;;;19.70;99.90;;;;;;5053211;28;20460;-81
2023/09/12 05:13:53;;;;;;;0.50;0.40;;;19.70;99.90;;;;;;5054369;28;20445;-83
2023/09/12 05:16:19;;;;;;;0.50;0.30;;;19.80;99.90;;;;;;5055766;28;20473;-82
2023/09/12 05:18:49;;;;;;;0.50;0.30;;;19.90;99.90;;;;;;5053617;28;21778;-82
2023/09/12 05:21:16;;;;;;;0.50;0.30;;;19.90;99.90;;;;;;5053981;28;20835;-82
2023/09/12 05:23:42;;;;;;;0.50;0.30;;;20.00;99.90;;;;;;5055491;28;20442;-77
2023/09/12 05:26:09;;;;;;;0.50;0.30;;;20.00;99.90;;;;;;5055779;28;20901;-82
2023/09/12 05:28:37;;;;;;;0.50;0.30;;;20.10;99.90;;;;;;5054355;28;20520;-82
2023/09/12 05:31:04;;;;;;;0.50;0.30;;;20.10;99.90;;;;;;5054610;28;20829;-82
2023/09/12 05:33:31;;;;;;;0.50;0.40;;;20.10;99.90;;;;;;5055299;28;20825;-83
2023/09/12 05:35:58;;;;;;;0.50;0.30;;;20.10;99.90;;;;;;5068772;28;20488;-83
2023/09/12 05:38:25;;;;;;;0.50;0.30;;;20.10;99.90;;;;;;5070028;28;20453;-82
2023/09/12 05:40:52;;;;;;;0.50;0.30;;;20.10;99.90;;;;;;5056823;28;20988;-82
2023/09/12 05:43:19;;;;;;;0.50;0.30;;;20.10;99.90;;;;;;5079359;28;20449;-81
2023/09/12 05:45:48;;;;;;;0.50;0.30;;;20.20;99.90;;;;;;5086043;28;20438;-79
2023/09/12 05:48:15;;;;;;;0.50;0.30;;;20.10;99.90;;;;;;5078948;28;20496;-82
2023/09/12 05:50:42;;;;;;;0.50;0.30;;;20.10;99.90;;;;;;5077192;28;20551;-82
2023/09/12 05:53:09;;;;;;;0.50;0.40;;;20.10;99.90;;;;;;5070047;28;20554;-80
2023/09/12 05:55:36;;;;;;;0.50;0.30;;;20.10;99.90;;;;;;5073587;28;20551;-82
2023/09/12 05:58:05;;;;;;;0.50;0.30;;;20.10;99.90;;;;;;5074634;28;20465;-82
2023/09/12 06:00:32;;;;;;;0.50;0.30;;;20.10;99.90;;;;;;5064059;28;20486;-79
2023/09/12 06:03:00;;;;;;;0.50;0.40;;;20.10;99.90;;;;;;5064880;28;20445;-81
2023/09/12 06:05:27;;;;;;;0.50;0.30;;;20.10;99.90;;;;;;5066386;28;20927;-84
2023/09/12 06:07:54;;;;;;;0.50;0.30;;;20.10;99.90;;;;;;5078130;28;20460;-84
2023/09/12 06:10:21;;;;;;;21.17;20.13;;;20.10;99.90;;;;;;5078018;28;20521;-84
2023/09/12 06:12:49;;;;;;;0.50;0.30;;;20.10;99.90;;;;;;5067557;28;20444;-84
2023/09/12 06:15:16;;;;;;;1.00;1.00;;;20.20;99.90;;;;;;5072121;28;20468;-84
2023/09/12 06:17:43;;;;;;;0.50;0.30;;;20.20;99.90;;;;;;5068177;28;20811;-83
2023/09/12 06:20:11;;;;;;;6.77;1.63;;;20.20;99.90;;;;;;5056883;28;20802;-83
2023/09/12 06:22:38;;;;;;;0.80;0.80;;;20.20;99.90;;;;;;5058977;28;20447;-84
2023/09/12 06:25:06;;;;;;;12.20;5.87;;;20.10;99.90;;;;;;5079776;28;20875;-85
2023/09/12 06:27:33;;;;;;;2.93;2.57;;;19.90;99.90;;;;;;5078923;28;20441;-85
2023/09/12 06:30:00;;;;;;;0.50;0.50;;;19.20;99.90;;;;;;5079000;28;20552;-87
2023/09/12 06:32:27;;;;;;;3.23;1.40;;;18.80;99.90;;;;;;5078938;28;20441;-86
2023/09/12 06:34:53;;;;;;;0.50;0.30;;;18.60;99.90;;;;;;5083523;28;20549;-85
2023/09/12 06:37:22;;;;;;;0.50;0.40;;;18.40;99.90;;;;;;5078957;28;20436;-86
2023/09/12 06:39:50;;;;;;;0.50;0.40;;;18.20;99.90;;;;;;5076747;28;20534;-85
2023/09/12 06:42:17;;;;;;;0.50;0.30;;;18.10;99.90;;;;;;5078187;28;20447;-86
2023/09/12 06:44:44;;;;;;;0.60;0.40;;;18.00;99.90;;;;;;5080426;28;20440;-85
2023/09/12 06:47:11;;;;;;;0.50;0.40;;;17.90;99.90;;;;;;5081275;28;20447;-86
2023/09/12 06:49:38;;;;;;;0.50;0.30;;;17.90;99.90;;;;;;5066033;28;20497;-86
2023/09/12 06:52:06;;;;;;;0.50;0.30;;;17.90;99.90;;;;;;5063937;28;20946;-84
2023/09/12 06:54:34;;;;;;;0.50;0.30;;;18.00;99.90;;;;;;5059734;28;20470;-85
2023/09/12 06:57:01;;;;;;;0.50;0.30;;;17.90;99.90;;;;;;5058596;28;20503;-85
2023/09/12 06:59:28;;;;;;;0.50;0.40;;;18.00;99.90;;;;;;5056120;28;20536;-83
2023/09/12 07:01:55;;;;;;;0.50;0.30;;;17.90;99.90;;;;;;5055963;28;20518;-85
2023/09/12 07:04:23;;;;;;;0.50;0.30;;;17.80;99.90;;;;;;5056191;28;20876;-85
2023/09/12 07:06:51;;;;;;;0.50;0.30;;;17.80;99.90;;;;;;5056195;28;20523;-82
2023/09/12 07:09:19;;;;;;;0.50;0.37;;;17.90;99.90;;;;;;5056346;28;20548;-86
2023/09/12 07:11:48;;;;;;;0.50;0.30;;;17.80;99.90;;;;;;5056862;28;20925;-86
2023/09/12 07:14:15;;;;;;;9.83;1.00;;;17.80;99.90;;;;;;5056422;28;20466;-85
2023/09/12 07:16:41;;;;;;;0.50;0.37;;;17.90;99.90;;;;;;5055270;28;20478;-86
2023/09/12 07:19:09;;;;;;;0.50;0.40;;;17.70;99.90;;;;;;5056651;28;20445;-86
2023/09/12 07:21:36;;;;;;;0.50;0.30;;;17.70;99.90;;;;;;5057795;28;20478;-86
2023/09/12 07:24:04;;;;;;;0.50;0.30;;;17.80;99.90;;;;;;5049441;28;20527;-86
2023/09/12 07:26:30;;;;;;;0.50;0.30;;;17.90;99.90;;;;;;5055783;28;20436;-86
2023/09/12 07:29:02;;;;;;;0.50;0.30;;;18.00;99.90;;;;;;5056708;28;20864;-83
2023/09/12 07:31:29;;;;;;;0.50;0.30;;;18.00;99.90;;;;;;5055952;28;20893;-83
2023/09/12 07:33:56;;;;;;;0.50;0.30;;;18.10;99.90;;;;;;5057220;28;20834;-83
2023/09/12 07:36:22;;;;;;;0.50;0.30;;;18.20;99.90;;;;;;5056104;28;20560;-83
2023/09/12 07:38:49;;;;;;;0.50;0.30;;;18.30;99.90;;;;;;5058683;28;20436;-84
2023/09/12 07:41:16;;;;;;;0.50;0.40;;;18.40;99.90;;;;;;5056865;28;20460;-84
2023/09/12 07:43:43;;;;;;;0.50;0.30;;;18.40;99.90;;;;;;5055604;28;20436;-81
2023/09/12 07:46:12;;;;;;;0.50;0.30;;;18.50;99.90;;;;;;5056310;28;20473;-84
2023/09/12 07:48:38;;;;;;;0.50;0.30;;;18.50;99.90;;;;;;5057131;28;20484;-84
2023/09/12 07:51:14;;;;;;;0.50;0.30;;;18.60;99.90;;;;;;5052776;28;20549;-83
2023/09/12 07:53:40;;;;;;;0.50;0.30;;;18.80;99.90;;;;;;5067310;28;20442;-84
2023/09/12 07:56:10;;;;;;;0.50;0.30;;;19.00;99.90;;;;;;5056260;28;21009;-84
2023/09/12 07:58:36;;;;;;;0.50;0.30;;;19.10;99.90;;;;;;5056260;28;20461;-83
2023/09/12 08:01:06;;;;;;;0.50;0.33;;;19.10;99.90;;;;;;5054434;28;20461;-83
2023/09/12 08:03:34;;;;;;;0.50;0.30;;;19.20;99.90;;;;;;5056033;28;20444;-83
2023/09/12 08:06:01;;;;;;;0.50;0.30;;;19.30;99.90;;;;;;5056251;28;20575;-83
2023/09/12 08:08:28;;;;;;;0.50;0.30;;;19.40;99.90;;;;;;5057120;28;20523;-83
2023/09/12 08:10:55;;;;;;;0.50;0.30;;;19.50;99.90;;;;;;5056411;28;20453;-83
2023/09/12 08:13:22;;;;;;;0.50;0.30;;;19.60;99.90;;;;;;5054805;28;20927;-83
2023/09/12 08:15:49;;;;;;;0.50;0.30;;;19.60;99.90;;;;;;5055692;28;20480;-80
2023/09/12 08:18:16;;;;;;;0.50;0.30;;;19.60;99.90;;;;;;5055600;28;20436;-83
2023/09/12 08:20:44;;;;;;;0.50;0.40;;;19.70;99.90;;;;;;5055091;28;20504;-84
2023/09/12 08:23:11;;;;;;;0.50;0.30;;;19.80;99.90;;;;;;5055521;28;20442;-83
2023/09/12 08:25:38;;;;;;;0.50;0.30;;;19.80;99.90;;;;;;5056395;28;20509;-84
2023/09/12 08:28:05;;;;;;;0.50;0.30;;;20.00;99.90;;;;;;5055981;28;20436;-85
2023/09/12 08:33:03;;;;;;;0.50;0.30;;;20.80;99.90;;;;;;5017941;28;20463;-83
2023/09/12 08:35:30;;;;;;;0.50;0.30;;;21.00;99.90;;;;;;5019086;28;20483;-80
2023/09/12 08:37:58;;;;;;;0.50;0.30;;;21.10;99.90;;;;;;5019830;28;20439;-81
2023/09/12 08:40:24;;;;;;;0.50;0.30;;;21.20;99.90;;;;;;5020105;28;20435;-79
2023/09/12 08:42:53;;;;;;;0.50;0.30;;;21.50;99.90;;;;;;5021007;28;20451;-79
2023/09/12 08:45:20;;;;;;;1.87;1.17;;;22.10;99.90;;;;;;5026229;28;20464;-82
2023/09/12 08:47:52;;;;;;;0.50;0.30;;;22.80;99.90;;;;;;5023901;28;20450;-81
2023/09/12 08:50:20;;;;;;;0.80;0.80;;;23.70;99.90;;;;;;5019178;28;20448;-81
2023/09/12 08:52:48;;;;;;;1.23;1.17;;;24.20;99.90;;;;;;5018232;28;20844;-81
2023/09/12 08:55:16;;;;;;;0.50;0.30;;;25.50;99.90;;;;;;5019654;28;20430;-83
2023/09/12 08:57:44;;;;;;;0.50;0.30;;;26.30;99.90;;;;;;5020597;28;20437;-82
2023/09/12 09:00:14;;;;;;;0.83;0.83;;;27.20;99.90;;;;;;5011081;28;20442;-82
2023/09/12 09:02:41;;;;;;;0.50;0.30;;;28.40;99.90;;;;;;5018193;28;20463;-82
2023/09/12 09:05:09;;;;;;;0.50;0.40;;;28.60;99.90;;;;;;5018002;28;20529;-83
2023/09/12 09:07:37;;;;;;;0.93;0.80;;;28.80;99.90;;;;;;5018106;28;20508;-82
2023/09/12 09:10:06;;;;;;;0.50;0.40;;;29.50;99.90;;;;;;5017294;28;20489;-82
2023/09/12 09:12:35;;;;;;;0.90;0.63;;;29.80;99.90;;;;;;5017769;28;20499;-82
2023/09/12 09:15:27;;;;;;;0.50;0.40;;;30.10;99.90;;;;;;5017413;28;20867;-83
2023/09/12 09:17:55;;;;;;;0.50;0.30;;;29.90;99.90;;;;;;5017255;28;20435;-82
2023/09/12 09:20:30;;;;;;;0.50;0.40;;;29.20;99.90;;;;;;5017767;28;20521;-82
2023/09/12 09:22:58;;;;;;;0.50;0.30;;;28.40;99.90;;;;;;5017488;28;20438;-82
2023/09/12 09:25:25;;;;;;;0.50;0.30;;;27.70;99.90;;;;;;5016831;28;20453;-81
2023/09/12 09:27:53;;;;;;;0.50;0.30;;;27.20;99.90;;;;;;5017742;28;20445;-82
2023/09/12 09:30:38;;;;;;;0.50;0.40;;;26.80;99.90;;;;;;5017509;28;20450;-82
2023/09/12 09:33:06;;;;;;;0.50;0.30;;;26.30;99.90;;;;;;5017395;28;20466;-80
2023/09/12 09:35:33;;;;;;;0.50;0.30;;;26.00;99.90;;;;;;5017621;28;20520;-79
2023/09/12 09:38:00;;;;;;;0.50;0.30;;;26.10;99.90;;;;;;5017774;28;20445;-83
2023/09/12 09:40:26;;;;;;;0.50;0.30;;;26.50;99.90;;;;;;5017545;28;20434;-80
2023/09/12 09:42:56;;;;;;;0.50;0.30;;;26.80;99.90;;;;;;5018261;28;20524;-82
2023/09/12 09:45:22;;;;;;;0.50;0.30;;;26.80;99.90;;;;;;5017802;28;20532;-82
2023/09/12 09:47:51;;;;;;;0.50;0.30;;;27.30;99.90;;;;;;5018040;28;20438;-81
2023/09/12 09:50:17;;;;;;;0.50;0.30;;;27.90;99.90;;;;;;5010092;28;20439;-82
2023/09/12 09:52:44;;;;;;;0.67;0.67;;;29.30;99.90;;;;;;5021826;28;20451;-81
2023/09/12 09:55:14;;;;;;;2.30;1.67;;;30.20;99.90;;;;;;5018393;28;20439;-82
2023/09/12 09:57:41;;;;;;;0.50;0.30;;;30.10;99.90;;;;;;5018049;28;20537;-82
2023/09/12 10:00:14;;;;;;;3.30;1.33;;;29.70;99.90;;;;;;5018774;28;20506;-82
2023/09/12 10:02:42;;;;;;;0.50;0.30;;;29.50;99.90;;;;;;5018685;28;20455;-81
2023/09/12 10:05:10;;;;;;;0.50;0.30;;;29.40;99.90;;;;;;5018343;28;20439;-81
2023/09/12 10:07:39;;;;;;;0.50;0.30;;;29.20;99.90;;;;;;5018178;28;20432;-80
2023/09/12 10:10:07;;;;;;;0.50;0.30;;;29.50;99.90;;;;;;5017590;28;20448;-81
2023/09/12 10:12:37;;;;;;;0.50;0.30;;;29.90;99.90;;;;;;5017917;28;20462;-82
2023/09/12 10:15:05;;;;;;;0.50;0.30;;;30.50;99.90;;;;;;5017208;28;20541;-82
2023/09/12 10:17:37;;;;;;;0.50;0.30;;;30.70;99.90;;;;;;5017668;28;20547;-81
2023/09/12 10:20:09;;;;;;;2.00;1.17;;;31.20;99.90;;;;;;5018227;28;20436;-82
2023/09/12 10:22:41;;;;;;;0.50;0.30;;;31.20;99.90;;;;;;5018046;28;20451;-81
2023/09/12 10:25:09;;;;;;;0.50;0.30;;;31.00;99.90;;;;;;5017785;28;20447;-83
2023/09/12 10:27:36;;;;;;;0.50;0.30;;;30.30;99.90;;;;;;5018765;28;20574;-78
2023/09/12 10:30:04;;;;;;;0.50;0.30;;;29.70;99.90;;;;;;5018149;28;20446;-82
2023/09/12 10:32:33;;;;;;;0.50;0.30;;;29.30;99.90;;;;;;5017944;28;20472;-82
2023/09/12 10:35:00;;;;;;;0.50;0.30;;;30.00;99.90;;;;;;5018026;28;20446;-82
2023/09/12 10:37:30;;;;;;;0.50;0.47;;;30.80;99.90;;;;;;5023306;28;20538;-82
2023/09/12 10:39:58;;;;;;;0.50;0.30;;;31.70;99.90;;;;;;5023683;28;20479;-83
2023/09/12 10:42:26;;;;;;;0.50;0.40;;;32.50;99.90;;;;;;5022087;28;20466;-83
2023/09/12 10:44:55;;;;;;;0.73;0.73;;;33.10;99.90;;;;;;5027910;28;20441;-82
2023/09/12 10:47:22;;;;;;;0.47;0.30;;;33.70;99.90;;;;;;5024150;28;20511;-81
2023/09/12 10:49:51;;;;;;;0.50;0.30;;;33.70;99.90;;;;;;5027397;28;20436;-82
2023/09/12 10:52:25;;;;;;;0.50;0.30;;;33.00;99.90;;;;;;5031425;28;20530;-82
2023/09/12 10:54:52;;;;;;;0.50;0.40;;;32.20;99.90;;;;;;5029613;28;20447;-82
2023/09/12 10:57:20;;;;;;;0.50;0.30;;;31.60;99.90;;;;;;5027559;28;20479;-80
2023/09/12 11:00:13;;;;;;;0.50;0.30;;;31.00;99.90;;;;;;5027486;28;20443;-80
2023/09/12 11:02:40;;;;;;;1.90;1.80;;;30.90;99.90;;;;;;5018348;28;20463;-81
2023/09/12 11:05:38;;;;;;;0.50;0.40;;;31.10;99.90;;;;;;5023188;28;20518;-81
2023/09/12 11:08:05;;;;;;;0.50;0.30;;;31.80;99.90;;;;;;5022380;28;20992;-81
2023/09/12 11:10:32;;;;;;;0.50;0.30;;;32.40;99.90;;;;;;5021507;28;20489;-81
2023/09/12 11:13:00;;;;;;;0.50;0.30;;;32.90;99.90;;;;;;5021243;28;20953;-80
2023/09/12 11:15:28;;;;;;;0.50;0.30;;;33.50;99.90;;;;;;5020206;28;20439;-80
2023/09/12 11:18:04;;;;;;;1.03;1.03;;;33.80;99.90;;;;;;5020398;28;20533;-82
2023/09/12 11:20:53;;;;;;;0.50;0.40;;;33.30;99.90;;;;;;5019932;28;20439;-80
2023/09/12 11:23:21;;;;;;;1.00;0.63;;;32.50;99.90;;;;;;5019733;28;20482;-82
2023/09/12 11:25:48;;;;;;;0.50;0.30;;;32.50;99.90;;;;;;5019027;28;20497;-81
2023/09/12 11:28:15;;;;;;;0.50;0.30;;;33.10;99.90;;;;;;5020295;28;20451;-81
2023/09/12 11:30:58;;;;;;;0.50;0.30;;;33.50;99.90;;;;;;5019469;28;20530;-82
2023/09/12 11:33:25;;;;;;;0.50;0.30;;;33.50;99.90;;;;;;5019740;28;20441;-81
2023/09/12 11:35:57;;;;;;;1.50;1.40;;;33.00;99.90;;;;;;5019839;28;20481;-81
2023/09/12 11:38:29;;;;;;;0.50;0.30;;;32.40;99.90;;;;;;5020238;28;20464;-82
2023/09/12 11:40:56;;;;;;;0.60;0.50;;;31.90;99.90;;;;;;5020838;28;20518;-82
2023/09/12 11:43:24;;;;;;;0.50;0.30;;;32.00;99.90;;;;;;5020552;28;20440;-82
2023/09/12 11:45:52;;;;;;;0.50;0.50;;;32.30;99.90;;;;;;5021248;28;20446;-82
2023/09/12 11:48:19;;;;;;;0.50;0.30;;;32.40;99.90;;;;;;5021087;28;20798;-81
2023/09/12 11:50:51;;;;;;;0.43;0.30;;;32.70;99.90;;;;;;5021844;28;20458;-82
2023/09/12 11:53:22;;;;;;;0.50;0.30;;;33.00;99.90;;;;;;5020863;28;20448;-83
2023/09/12 11:55:51;;;;;;;0.40;0.30;;;33.30;99.90;;;;;;5022306;28;20432;-82
2023/09/12 11:58:20;;;;;;;0.40;0.30;;;33.50;99.90;;;;;;5021995;28;20549;-82
2023/09/12 12:00:49;;;;;;;2.20;2.00;;;33.30;99.90;;;;;;5022526;28;20574;-82
2023/09/12 12:03:16;;;;;;;0.50;0.50;;;33.50;99.90;;;;;;5022333;28;20478;-82
2023/09/12 12:05:43;;;;;;;0.50;0.30;;;33.60;99.90;;;;;;5023125;28;20444;-81
2023/09/12 12:08:11;;;;;;;2.33;1.63;;;33.70;99.90;;;;;;5022994;28;20511;-82
2023/09/12 12:10:40;;;;;;;0.40;0.30;;;33.50;99.90;;;;;;5022682;28;20450;-82
2023/09/12 12:13:11;;;;;;;0.43;0.30;;;33.00;99.90;;;;;;5022821;28;20498;-80
2023/09/12 12:15:38;;;;;;;67.23;18.67;;;32.40;99.90;;;;;;5022487;28;20436;-82
2023/09/12 12:18:05;;;;;;;0.47;0.30;;;31.50;99.90;;;;;;5023556;28;20482;-81
2023/09/12 12:20:32;;;;;;;0.50;0.30;;;31.20;99.90;;;;;;5023813;28;20530;-81
2023/09/12 12:22:59;;;;;;;0.50;0.30;;;30.50;99.90;;;;;;5024132;28;20737;-82
2023/09/12 12:25:26;;;;;;;0.50;0.30;;;29.70;99.90;;;;;;5023341;28;20443;-82
2023/09/12 12:27:54;;;;;;;0.50;0.30;;;29.30;99.90;;;;;;5022565;28;20442;-82
2023/09/12 12:30:22;;;;;;;0.50;0.30;;;28.90;99.90;;;;;;5021733;28;20439;-82
2023/09/12 12:32:50;;;;;;;1.60;1.50;;;28.50;99.90;;;;;;5022342;28;20485;-82
2023/09/12 12:35:20;;;;;;;0.97;0.90;;;28.30;99.90;;;;;;5023078;28;20514;-82
2023/09/12 12:37:49;;;;;;;0.50;0.30;;;28.00;99.90;;;;;;5023711;28;20521;-81
2023/09/12 12:40:17;;;;;;;0.50;0.30;;;28.20;99.90;;;;;;5022821;28;20443;-81
2023/09/12 12:42:46;;;;;;;5.90;3.40;;;28.20;99.90;;;;;;5023260;28;20474;-81
2023/09/12 12:45:15;;;;;;;0.50;0.40;;;28.50;99.90;;;;;;5026337;28;20447;-83
2023/09/12 12:47:42;;;;;;;0.60;0.50;;;29.10;99.90;;;;;;5033425;28;20500;-79
2023/09/12 12:50:11;;;;;;;0.50;0.30;;;29.80;99.90;;;;;;5025844;28;20478;-81
2023/09/12 12:52:38;;;;;;;0.50;0.30;;;30.00;99.90;;;;;;5024807;28;20461;-81